createdAt,value
2017-09-12T06:02:16.496Z,14.10
2017-09-12T06:04:46.373Z,12.70
2017-09-12T06:07:15.536Z,12.70
2017-09-12T06:09:43.965Z,12.70
2017-09-12T06:12:12.437Z,12.70
2017-09-12T06:14:40.888Z,12.70
2017-09-12T06:17:09.311Z,12.70
2017-09-12T06:19:39.241Z,12.70
2017-09-12T06:22:08.169Z,12.70
2017-09-12T06:24:36.622Z,12.80
2017-09-12T06:27:05.116Z,12.70
2017-09-12T06:29:33.632Z,12.70
2017-09-12T06:32:02.223Z,12.70
2017-09-12T06:34:31.438Z,12.80
2017-09-12T06:37:00.464Z,12.80
2017-09-12T06:39:29.034Z,12.90
2017-09-12T06:41:57.477Z,12.90
2017-09-12T06:44:25.984Z,12.90
2017-09-12T06:46:54.679Z,12.90
2017-09-12T06:49:23.111Z,13.00
2017-09-12T06:51:51.529Z,13.00
2017-09-12T06:54:20.020Z,13.10
2017-09-12T06:56:48.611Z,13.10
2017-09-12T06:59:17.074Z,13.20
2017-09-12T07:01:46.438Z,13.20
2017-09-12T07:04:15.728Z,13.20
2017-09-12T07:06:44.165Z,13.30
2017-09-12T07:09:12.726Z,13.30
2017-09-12T07:11:41.311Z,13.30
2017-09-12T07:14:10.516Z,13.30
2017-09-12T07:26:19.147Z,13.30
2017-09-12T07:28:47.644Z,13.70
2017-09-12T07:31:16.985Z,13.80
2017-09-12T07:33:46.305Z,13.80
2017-09-12T07:36:14.851Z,13.80
2017-09-12T07:38:43.279Z,13.80
2017-09-12T07:41:12.482Z,13.70
2017-09-12T07:43:40.943Z,13.70
2017-09-12T07:46:10.124Z,13.70
2017-09-12T07:48:38.653Z,13.60
2017-09-12T07:51:07.089Z,13.70
2017-09-12T07:53:35.710Z,13.90
2017-09-12T07:56:04.140Z,14.00
2017-09-12T07:58:32.588Z,14.10
2017-09-12T08:01:01.026Z,14.20
2017-09-12T08:03:29.437Z,14.20
2017-09-12T08:05:57.847Z,14.30
2017-09-12T08:08:26.480Z,14.40
2017-09-12T08:10:54.915Z,14.30
2017-09-12T08:13:23.231Z,14.30
2017-09-12T08:15:51.650Z,14.40
2017-09-12T08:18:19.895Z,14.50
2017-09-12T08:20:48.317Z,14.60
2017-09-12T08:23:16.738Z,14.70
2017-09-12T08:25:45.315Z,14.70
2017-09-12T08:28:14.071Z,14.80
2017-09-12T08:30:42.759Z,14.80
2017-09-12T08:33:11.272Z,14.80
2017-09-12T08:35:39.687Z,14.70
2017-09-12T08:38:08.124Z,14.60
2017-09-12T08:40:36.588Z,14.50
2017-09-12T08:43:05.088Z,14.70
2017-09-12T08:45:33.729Z,14.80
2017-09-12T08:48:03.939Z,14.90
2017-09-12T08:50:33.886Z,15.00
2017-09-12T08:53:02.313Z,15.00
2017-09-12T08:55:31.726Z,15.10
2017-09-12T08:58:01.007Z,15.10
2017-09-12T09:00:29.415Z,15.10
2017-09-12T09:02:58.590Z,15.10
2017-09-12T09:05:28.545Z,15.10
2017-09-12T09:07:57.436Z,15.10
2017-09-12T09:10:25.842Z,15.20
2017-09-12T09:12:55.110Z,15.30
2017-09-12T09:15:24.439Z,15.20
2017-09-12T09:17:54.266Z,15.10
2017-09-12T09:20:22.882Z,15.10
2017-09-12T09:22:53.121Z,15.10
2017-09-12T09:25:22.416Z,15.20
2017-09-12T09:27:50.831Z,15.40
2017-09-12T09:30:19.269Z,15.70
2017-09-12T09:32:47.748Z,15.90
2017-09-12T09:35:16.198Z,16.10
2017-09-12T09:37:45.426Z,16.30
2017-09-12T09:40:14.820Z,16.30
2017-09-12T09:42:43.273Z,16.40
2017-09-12T09:45:11.881Z,16.40
2017-09-12T09:47:40.306Z,16.30
2017-09-12T09:50:08.723Z,16.20
2017-09-12T09:52:37.145Z,16.20
2017-09-12T09:55:05.847Z,16.20
2017-09-12T09:57:34.269Z,16.40
2017-09-12T10:00:02.706Z,16.40
2017-09-12T10:02:31.147Z,16.30
2017-09-12T10:04:59.564Z,16.20
2017-09-12T10:07:27.817Z,16.10
2017-09-12T10:09:56.256Z,15.90
2017-09-12T10:12:24.696Z,15.90
2017-09-12T10:14:53.138Z,15.90
2017-09-12T10:17:21.567Z,16.10
2017-09-12T10:19:50.243Z,16.20
2017-09-12T10:22:18.682Z,16.40
2017-09-12T10:24:47.100Z,16.40
2017-09-12T10:27:15.520Z,16.40
2017-09-12T10:29:44.084Z,16.30
2017-09-12T10:32:12.457Z,16.30
2017-09-12T10:34:40.907Z,16.20
2017-09-12T10:37:10.120Z,16.10
2017-09-12T10:39:38.415Z,16.10
2017-09-12T10:42:06.880Z,16.10
2017-09-12T10:44:35.246Z,16.20
2017-09-12T10:47:03.772Z,16.20
2017-09-12T10:49:32.317Z,16.40
2017-09-12T10:52:00.744Z,16.60
2017-09-12T10:54:29.188Z,16.80
2017-09-12T10:56:57.626Z,17.00
2017-09-12T10:59:26.048Z,17.00
2017-09-12T11:01:54.475Z,16.90
2017-09-12T11:04:22.893Z,16.80
2017-09-12T11:06:51.322Z,16.80
2017-09-12T11:09:20.529Z,16.90
2017-09-12T11:11:48.960Z,16.90
2017-09-12T11:14:17.395Z,16.90
2017-09-12T11:16:45.825Z,16.80
2017-09-12T11:19:14.777Z,16.60
2017-09-12T11:21:44.629Z,15.00
2017-09-12T11:24:14.875Z,15.00
2017-09-12T11:26:44.594Z,14.70
2017-09-12T11:29:13.003Z,14.60
2017-09-12T11:31:41.430Z,14.70
2017-09-12T11:34:12.765Z,14.60
2017-09-12T11:36:41.835Z,14.60
2017-09-12T11:39:10.821Z,14.70
2017-09-12T11:41:39.242Z,14.60
2017-09-12T11:44:07.521Z,14.50
2017-09-12T11:46:38.626Z,14.50
2017-09-12T11:49:07.054Z,14.40
2017-09-12T11:51:35.539Z,14.40
2017-09-12T11:54:03.973Z,14.40
2017-09-12T11:56:32.505Z,14.70
2017-09-12T11:59:00.933Z,14.90
2017-09-12T12:01:29.368Z,14.70
2017-09-12T12:03:58.456Z,14.70
2017-09-12T12:06:26.937Z,14.80
2017-09-12T12:08:56.177Z,14.80
2017-09-12T12:11:24.699Z,14.70
2017-09-12T12:13:53.413Z,14.50
2017-09-12T12:16:24.107Z,14.30
2017-09-12T12:18:52.767Z,13.70
2017-09-12T12:21:21.271Z,13.60
2017-09-12T12:23:53.028Z,13.50
2017-09-12T12:26:21.736Z,13.40
2017-09-12T12:28:52.337Z,13.40
2017-09-12T12:31:22.233Z,13.40
2017-09-12T12:33:50.660Z,13.40
2017-09-12T12:36:19.294Z,13.50
2017-09-12T12:38:47.906Z,13.50
2017-09-12T12:41:16.348Z,13.60
2017-09-12T12:43:44.781Z,13.70
2017-09-12T12:46:14.146Z,13.70
2017-09-12T12:48:43.522Z,13.60
2017-09-12T12:51:13.353Z,13.40
2017-09-12T12:53:42.157Z,13.40
2017-09-12T12:56:12.767Z,13.30
2017-09-12T12:58:41.200Z,13.20
2017-09-12T13:01:10.755Z,13.10
2017-09-12T13:03:39.731Z,13.00
2017-09-12T13:06:09.897Z,12.90
2017-09-12T13:08:38.445Z,12.80
2017-09-12T13:11:06.872Z,12.70
2017-09-12T13:13:35.495Z,12.80
2017-09-12T13:16:03.908Z,13.20
2017-09-12T13:18:36.770Z,13.50
2017-09-12T13:21:05.202Z,13.70
2017-09-12T13:23:34.243Z,13.60
2017-09-12T13:26:02.524Z,13.60
2017-09-12T13:28:30.967Z,13.50
2017-09-12T13:30:59.401Z,13.40
2017-09-12T13:33:27.935Z,13.30
2017-09-12T13:35:56.361Z,13.40
2017-09-12T13:38:24.806Z,13.40
2017-09-12T13:40:53.222Z,13.40
2017-09-12T13:43:21.740Z,13.50
2017-09-12T13:45:50.426Z,13.60
2017-09-12T13:48:18.810Z,13.60
2017-09-12T13:50:48.204Z,13.60
2017-09-12T13:53:18.087Z,13.60
2017-09-12T13:55:47.272Z,13.70
2017-09-12T13:58:16.413Z,13.70
2017-09-12T14:00:44.827Z,13.80
2017-09-12T14:03:15.368Z,13.80
2017-09-12T14:05:45.539Z,13.80
2017-09-12T14:08:14.002Z,14.00
2017-09-12T14:10:42.437Z,14.20
2017-09-12T14:13:13.453Z,14.40
2017-09-12T14:15:42.623Z,14.40
2017-09-12T14:18:11.061Z,14.50
2017-09-12T14:20:40.966Z,14.50
2017-09-12T14:23:09.512Z,14.50
2017-09-12T14:25:38.521Z,14.60
2017-09-12T14:28:08.063Z,14.60
2017-09-12T14:30:37.959Z,14.60
2017-09-12T14:33:07.721Z,14.70
2017-09-12T14:35:38.244Z,14.70
2017-09-12T14:38:06.669Z,14.70
2017-09-12T14:40:36.471Z,14.70
2017-09-12T14:43:06.191Z,14.90
2017-09-12T14:45:35.382Z,14.90
2017-09-12T14:48:03.664Z,14.90
2017-09-12T14:50:32.100Z,14.90
2017-09-12T14:53:00.554Z,15.00
2017-09-12T14:55:28.988Z,15.10
2017-09-12T14:57:58.316Z,15.20
2017-09-12T15:00:26.792Z,15.20
2017-09-12T15:02:55.237Z,15.30
2017-09-12T15:05:24.341Z,15.30
2017-09-12T15:07:54.181Z,15.40
2017-09-12T15:10:22.602Z,15.50
2017-09-12T15:12:55.733Z,15.60
2017-09-12T15:15:24.973Z,15.70
2017-09-12T15:17:53.975Z,15.60
2017-09-12T15:20:22.427Z,15.70
2017-09-12T15:22:50.973Z,15.70
2017-09-12T15:25:19.380Z,15.70
2017-09-12T15:27:47.798Z,15.80
2017-09-12T15:30:17.029Z,15.90
2017-09-12T15:32:45.451Z,15.80
2017-09-12T15:35:13.877Z,16.00
2017-09-12T15:37:42.364Z,16.00
2017-09-12T15:40:11.453Z,16.10
2017-09-12T15:42:41.693Z,16.20
2017-09-12T15:45:10.593Z,16.20
2017-09-12T15:47:39.020Z,16.30
2017-09-12T15:50:09.333Z,16.40
2017-09-12T15:52:38.980Z,16.40
2017-09-12T15:55:07.444Z,16.40
2017-09-12T15:57:36.598Z,16.40
2017-09-12T16:00:05.639Z,16.30
2017-09-12T16:02:34.079Z,16.30
2017-09-12T16:05:02.519Z,16.40
2017-09-12T16:07:31.079Z,16.30
2017-09-12T16:09:59.501Z,16.30
2017-09-12T16:12:28.030Z,16.20
2017-09-12T16:14:56.451Z,16.30
2017-09-12T16:17:25.085Z,16.40
2017-09-12T16:19:53.530Z,16.60
2017-09-12T16:22:22.721Z,16.60
2017-09-12T16:24:51.948Z,16.60
2017-09-12T16:27:20.536Z,16.60
2017-09-12T16:29:49.009Z,16.60
2017-09-12T16:32:17.590Z,16.60
2017-09-12T16:34:46.994Z,16.70
2017-09-12T16:37:15.413Z,16.60
2017-09-12T16:39:43.842Z,16.50
2017-09-12T16:42:12.271Z,16.50
2017-09-12T16:44:40.703Z,16.50
2017-09-12T16:47:09.137Z,16.50
2017-09-12T16:49:38.474Z,16.50
2017-09-12T16:52:07.056Z,16.50
2017-09-12T16:54:42.097Z,16.50
2017-09-12T16:57:10.578Z,16.40
2017-09-12T16:59:39.655Z,16.40
2017-09-12T17:02:08.135Z,16.40
2017-09-12T17:04:36.932Z,16.30
2017-09-12T17:07:05.382Z,16.20
2017-09-12T17:09:34.195Z,16.10
2017-09-12T17:12:02.649Z,16.00
2017-09-12T17:14:33.695Z,15.90
2017-09-12T17:17:02.178Z,15.80
2017-09-12T17:19:30.639Z,15.70
2017-09-12T17:21:59.950Z,15.60
2017-09-12T17:24:28.382Z,15.60
2017-09-12T17:26:56.837Z,15.60
2017-09-12T17:29:26.106Z,15.50
2017-09-12T17:31:54.386Z,15.50
2017-09-12T17:34:22.830Z,15.50
2017-09-12T17:36:55.844Z,15.40
2017-09-12T17:39:24.266Z,15.40
2017-09-12T17:41:52.686Z,15.30
2017-09-12T17:44:22.691Z,15.20
2017-09-12T17:46:51.714Z,15.10
2017-09-12T17:49:20.236Z,15.10
2017-09-12T17:51:48.858Z,15.00
2017-09-12T17:54:17.295Z,14.90
2017-09-12T17:56:45.733Z,15.00
2017-09-12T17:59:14.161Z,15.00
2017-09-12T18:01:42.677Z,15.10
2017-09-12T18:04:11.363Z,15.20
2017-09-12T18:06:39.797Z,15.10
2017-09-12T18:09:09.068Z,15.10
2017-09-12T18:11:37.494Z,15.10
2017-09-12T18:14:05.913Z,15.10
2017-09-12T18:16:35.298Z,15.00
2017-09-12T18:19:03.779Z,15.00
2017-09-12T18:21:32.203Z,15.00
2017-09-12T18:24:02.397Z,14.90
2017-09-12T18:26:30.820Z,14.90
2017-09-12T18:28:59.273Z,14.90
2017-09-12T18:31:27.689Z,14.80
2017-09-12T18:33:56.172Z,14.70
2017-09-12T18:36:26.069Z,14.60
2017-09-12T18:38:54.764Z,14.60
2017-09-12T18:41:23.671Z,14.50
2017-09-12T18:43:53.137Z,14.50
2017-09-12T18:46:22.868Z,14.50
2017-09-12T18:48:51.148Z,14.40
2017-09-12T18:51:19.716Z,14.40
2017-09-12T18:53:48.150Z,14.30
2017-09-12T18:56:16.774Z,14.30
2017-09-12T18:58:45.233Z,14.20
2017-09-12T19:01:16.404Z,14.20
2017-09-12T19:03:44.846Z,14.20
2017-09-12T19:06:13.934Z,14.20
2017-09-12T19:08:43.190Z,14.10
2017-09-12T19:11:11.650Z,14.10
2017-09-12T19:13:40.388Z,14.00
2017-09-12T19:16:08.686Z,14.00
2017-09-12T19:18:39.960Z,13.90
2017-09-12T19:21:08.941Z,13.90
2017-09-12T19:23:37.379Z,13.80
2017-09-12T19:26:10.787Z,13.80
2017-09-12T19:28:40.308Z,13.70
2017-09-12T19:31:08.727Z,13.70
2017-09-12T19:33:42.262Z,13.60
2017-09-12T19:36:10.760Z,13.60
2017-09-12T19:38:39.797Z,13.60
2017-09-12T19:41:09.857Z,13.60
2017-09-12T19:43:38.291Z,13.60
2017-09-12T19:46:09.749Z,13.50
2017-09-12T19:48:38.268Z,13.50
2017-09-12T19:51:08.414Z,13.50
2017-09-12T19:53:37.888Z,13.50
2017-09-12T19:56:06.314Z,13.40
2017-09-12T19:58:34.754Z,13.40
2017-09-12T20:01:08.908Z,13.40
2017-09-12T20:03:38.095Z,13.30
2017-09-12T20:06:07.421Z,13.30
2017-09-12T20:08:36.759Z,13.30
2017-09-12T20:11:06.127Z,13.30
2017-09-12T20:13:35.033Z,13.30
2017-09-12T20:16:06.350Z,13.30
2017-09-12T20:18:37.389Z,13.20
2017-09-12T20:21:06.591Z,13.10
2017-09-12T20:23:38.028Z,13.20
2017-09-12T20:26:06.494Z,13.20
2017-09-12T20:28:36.607Z,13.10
2017-09-12T20:31:05.133Z,13.10
2017-09-12T20:33:34.695Z,13.00
2017-09-12T20:36:03.350Z,13.10
2017-09-12T20:38:31.693Z,13.00
2017-09-12T20:41:00.136Z,13.00
2017-09-12T20:43:29.980Z,13.00
2017-09-12T20:46:00.920Z,13.00
2017-09-12T20:48:30.324Z,13.00
2017-09-12T20:50:58.790Z,12.90
2017-09-12T20:53:28.316Z,12.90
2017-09-12T20:55:57.599Z,12.90
2017-09-12T20:58:26.052Z,12.90
2017-09-12T21:00:54.626Z,12.90
2017-09-12T21:03:24.676Z,12.90
2017-09-12T21:18:48.119Z,12.80
2017-09-12T21:21:19.180Z,12.80
2017-09-12T21:23:49.674Z,12.80
2017-09-12T21:26:18.361Z,12.80
2017-09-12T21:28:47.607Z,12.80
2017-09-12T21:31:16.067Z,12.70
2017-09-12T21:33:44.982Z,12.80
2017-09-12T21:36:14.053Z,12.70
2017-09-12T21:38:43.314Z,12.70
2017-09-12T21:41:11.563Z,12.80
2017-09-12T21:43:39.957Z,12.80
2017-09-12T21:46:08.381Z,12.80
2017-09-12T21:48:36.673Z,12.80
2017-09-12T21:51:05.096Z,12.80
2017-09-12T21:53:33.524Z,12.80
2017-09-12T21:56:02.139Z,12.80
2017-09-12T21:58:30.585Z,12.80
2017-09-12T22:00:59.018Z,12.80
2017-09-12T22:03:27.573Z,12.80
2017-09-12T22:05:56.007Z,12.80
2017-09-12T22:08:25.215Z,12.80
2017-09-12T22:10:53.645Z,12.80
2017-09-12T22:13:22.065Z,12.80
2017-09-12T22:15:51.246Z,12.90
2017-09-12T22:18:19.702Z,12.80
2017-09-12T22:20:48.148Z,12.80
2017-09-12T22:23:17.653Z,12.90
2017-09-12T22:25:48.088Z,12.90
2017-09-12T22:28:20.960Z,13.00
2017-09-12T22:30:50.853Z,13.00
2017-09-12T22:33:20.791Z,13.00
2017-09-12T22:35:49.368Z,13.00
2017-09-12T22:38:19.099Z,13.10
2017-09-12T22:40:48.981Z,13.10
2017-09-12T22:56:12.598Z,13.10
2017-09-12T22:58:42.184Z,13.20
2017-09-12T23:01:10.613Z,13.30
2017-09-12T23:03:40.161Z,13.20
2017-09-12T23:06:10.512Z,13.20
2017-09-12T23:08:38.956Z,13.20
2017-09-12T23:11:07.645Z,13.20
2017-09-12T23:13:36.989Z,13.20
2017-09-12T23:16:05.462Z,13.20
2017-09-12T23:18:33.888Z,13.20
2017-09-12T23:21:02.428Z,13.20
2017-09-12T23:23:30.902Z,13.20
2017-09-12T23:25:59.317Z,13.20
2017-09-12T23:28:27.752Z,13.20
2017-09-12T23:30:56.987Z,13.20
2017-09-12T23:33:26.072Z,13.10
2017-09-12T23:35:55.134Z,13.10
2017-09-12T23:38:24.358Z,13.10
2017-09-12T23:40:54.167Z,13.10
2017-09-12T23:43:22.584Z,13.10
2017-09-12T23:45:51.147Z,13.10
2017-09-12T23:48:20.503Z,13.10
2017-09-12T23:50:49.175Z,13.20
2017-09-12T23:53:17.612Z,13.20
2017-09-12T23:55:46.036Z,13.20
2017-09-12T23:58:14.456Z,13.20
